createdAt,value
2019-05-07T00:00:46.738Z,101005.98
2019-05-07T00:03:16.314Z,101008.05
2019-05-07T00:05:45.852Z,101011.85
2019-05-07T00:08:15.347Z,101003.79
2019-05-07T00:10:44.802Z,101013.42
2019-05-07T00:13:14.372Z,101001.11
2019-05-07T00:15:43.871Z,101001.41
2019-05-07T00:18:13.332Z,101002.31
2019-05-07T00:20:42.791Z,100997.09
2019-05-07T00:23:12.499Z,100999.97
2019-05-07T00:25:42.387Z,100998.91
2019-05-07T00:28:12.340Z,100991.80
2019-05-07T00:30:42.642Z,100996.12
2019-05-07T00:33:13.167Z,100994.27
2019-05-07T00:35:44.448Z,100996.82
2019-05-07T00:38:15.581Z,100989.74
2019-05-07T00:41:02.891Z,100993.20
2019-05-07T00:43:34.118Z,100995.63
2019-05-07T00:46:05.571Z,100998.55
2019-05-07T00:48:35.059Z,101000.56
2019-05-07T00:51:22.737Z,100986.91
2019-05-07T00:53:52.459Z,100990.03
2019-05-07T00:56:22.421Z,100988.39
2019-05-07T00:58:52.702Z,100991.60
2019-05-07T01:01:23.403Z,100988.14
2019-05-07T01:03:53.588Z,100990.86
2019-05-07T01:06:26.345Z,100987.70
2019-05-07T01:08:55.657Z,100989.91
2019-05-07T01:11:25.522Z,100994.27
2019-05-07T01:13:55.011Z,100985.97
2019-05-07T01:16:24.493Z,100982.47
2019-05-07T01:18:53.950Z,100982.05
2019-05-07T01:21:23.811Z,100979.47
2019-05-07T01:23:53.376Z,100986.99
2019-05-07T01:26:22.837Z,100988.31
2019-05-07T01:29:02.831Z,100989.17
2019-05-07T01:31:35.909Z,100987.85
2019-05-07T01:34:13.061Z,100992.22
2019-05-07T01:36:42.908Z,100988.68
2019-05-07T01:39:13.098Z,100989.17
2019-05-07T01:41:43.370Z,100989.63
2019-05-07T01:44:12.947Z,101002.42
2019-05-07T01:46:43.371Z,101005.54
2019-05-07T01:49:13.929Z,100995.47
2019-05-07T01:51:44.452Z,101001.19
2019-05-07T01:54:13.955Z,101000.81
2019-05-07T01:56:43.776Z,101002.98
2019-05-07T01:59:13.232Z,101003.45
2019-05-07T02:01:43.147Z,101004.80
2019-05-07T02:04:14.267Z,101001.76
2019-05-07T02:07:02.823Z,101001.34
2019-05-07T02:09:42.334Z,100999.13
2019-05-07T02:12:15.791Z,101003.98
2019-05-07T02:14:45.295Z,101006.65
2019-05-07T02:17:15.153Z,101000.97
2019-05-07T02:19:44.650Z,101007.02
2019-05-07T02:22:14.164Z,101010.40
2019-05-07T02:24:43.612Z,101009.48
2019-05-07T02:27:13.112Z,101014.27
2019-05-07T02:29:43.093Z,101010.31
2019-05-07T02:32:13.442Z,101013.77
2019-05-07T02:34:44.210Z,101016.41
2019-05-07T02:37:15.740Z,101011.55
2019-05-07T02:39:49.856Z,101017.27
2019-05-07T02:42:19.349Z,101015.01
2019-05-07T02:44:59.763Z,101016.23
2019-05-07T02:47:33.071Z,101013.89
2019-05-07T02:50:04.242Z,101015.41
2019-05-07T02:52:53.364Z,101016.11
2019-05-07T02:55:23.511Z,101015.56
2019-05-07T02:57:54.211Z,101011.86
2019-05-07T03:00:24.518Z,101016.71
2019-05-07T03:02:54.098Z,101015.94
2019-05-07T03:05:23.588Z,101021.28
2019-05-07T03:07:53.728Z,101021.38
2019-05-07T03:10:24.220Z,101017.95
2019-05-07T03:12:54.010Z,101023.75
2019-05-07T03:15:24.295Z,101016.23
2019-05-07T03:17:54.090Z,101018.81
2019-05-07T03:20:43.040Z,101021.38
2019-05-07T03:23:14.326Z,101023.34
2019-05-07T03:25:54.124Z,101022.80
2019-05-07T03:28:24.458Z,101023.16
2019-05-07T03:30:57.152Z,101024.17
2019-05-07T03:33:29.755Z,101028.27
2019-05-07T03:36:06.298Z,101031.08
2019-05-07T03:38:33.509Z,101033.08
2019-05-07T03:41:04.224Z,101029.23
2019-05-07T03:43:34.124Z,101036.34
2019-05-07T03:46:05.434Z,101035.26
2019-05-07T03:48:36.932Z,101038.56
2019-05-07T03:51:06.505Z,101043.13
2019-05-07T03:53:35.993Z,101034.14
2019-05-07T03:56:05.522Z,101041.39
2019-05-07T03:58:35.017Z,101043.83
2019-05-07T04:01:04.816Z,101040.28
2019-05-07T04:03:34.711Z,101041.00
2019-05-07T04:06:04.533Z,101047.98
2019-05-07T04:08:34.053Z,101043.68
2019-05-07T04:11:04.099Z,101046.31
2019-05-07T04:13:34.061Z,101045.95
2019-05-07T04:16:04.276Z,101048.16
2019-05-07T04:18:34.261Z,101055.09
2019-05-07T04:21:04.196Z,101051.97
2019-05-07T04:23:34.543Z,101055.05
2019-05-07T04:26:05.870Z,101052.47
2019-05-07T04:28:54.228Z,101057.82
2019-05-07T04:31:25.548Z,101059.59
2019-05-07T04:33:57.689Z,101059.78
2019-05-07T04:36:28.963Z,101060.02
2019-05-07T04:38:58.422Z,101061.48
2019-05-07T04:41:28.306Z,101066.48
2019-05-07T04:43:58.425Z,101062.22
2019-05-07T04:46:27.929Z,101064.08
2019-05-07T04:48:59.615Z,101063.36
2019-05-07T04:51:33.753Z,101071.57
2019-05-07T04:54:03.800Z,101065.69
2019-05-07T04:56:33.827Z,101063.20
2019-05-07T04:59:03.953Z,101065.09
2019-05-07T05:01:35.063Z,101060.02
2019-05-07T05:04:20.708Z,101067.05
2019-05-07T05:06:36.066Z,101069.31
2019-05-07T05:09:06.939Z,101066.78
2019-05-07T05:11:36.447Z,101072.48
2019-05-07T05:14:07.894Z,101075.20
2019-05-07T05:16:37.159Z,101075.62
2019-05-07T05:19:06.626Z,101076.63
2019-05-07T05:21:49.938Z,101082.88
2019-05-07T05:24:24.051Z,101081.46
2019-05-07T05:26:53.512Z,101090.08
2019-05-07T05:29:23.035Z,101081.98
2019-05-07T05:31:52.938Z,101089.92
2019-05-07T05:34:22.584Z,101088.70
2019-05-07T05:36:53.204Z,101091.83
2019-05-07T05:39:23.207Z,101088.10
2019-05-07T05:41:54.303Z,101082.14
2019-05-07T05:44:28.375Z,101091.11
2019-05-07T05:46:57.882Z,101088.66
2019-05-07T05:49:27.333Z,101083.27
2019-05-07T05:51:58.531Z,101085.66
2019-05-07T05:54:32.426Z,101086.84
2019-05-07T05:57:09.701Z,101091.50
2019-05-07T05:59:56.672Z,101089.63
2019-05-07T06:02:43.996Z,101090.81
2019-05-07T06:05:22.153Z,101090.89
2019-05-07T06:07:53.741Z,101092.47
2019-05-07T06:10:42.452Z,101095.00
2019-05-07T06:13:13.628Z,101097.94
2019-05-07T06:15:53.749Z,101096.20
2019-05-07T06:18:41.878Z,101104.09
2019-05-07T06:21:25.227Z,101101.98
2019-05-07T06:23:59.319Z,101104.97
2019-05-07T06:26:28.949Z,101099.20
2019-05-07T06:28:58.785Z,101107.63
2019-05-07T06:31:28.368Z,101112.04
2019-05-07T06:33:57.949Z,101110.98
2019-05-07T06:36:28.112Z,101113.80
2019-05-07T06:39:01.824Z,101108.28
2019-05-07T06:41:52.557Z,101110.71
2019-05-07T06:44:23.058Z,101108.66
2019-05-07T06:46:52.843Z,101108.55
2019-05-07T06:49:22.456Z,101109.03
2019-05-07T06:51:52.937Z,101112.83
2019-05-07T06:54:23.386Z,101111.53
2019-05-07T06:56:52.888Z,101119.43
2019-05-07T06:59:27.148Z,101122.81
2019-05-07T07:02:02.355Z,101118.52
2019-05-07T07:04:35.632Z,101118.70
2019-05-07T07:07:26.326Z,101117.02
2019-05-07T07:09:48.120Z,101117.73
2019-05-07T07:12:25.548Z,101115.13
2019-05-07T07:14:53.714Z,101111.19
2019-05-07T07:17:23.201Z,101111.00
2019-05-07T07:19:53.224Z,101105.15
2019-05-07T07:22:23.079Z,101104.10
2019-05-07T07:24:53.118Z,101102.95
2019-05-07T07:27:22.896Z,101107.20
2019-05-07T07:30:04.455Z,101109.92
2019-05-07T07:32:35.646Z,101103.29
2019-05-07T07:35:08.875Z,101105.14
2019-05-07T07:37:42.997Z,101100.33
2019-05-07T07:42:56.468Z,101093.08
2019-05-07T07:45:26.033Z,101093.91
2019-05-07T07:47:55.562Z,101097.43
2019-05-07T07:50:25.071Z,101093.31
2019-05-07T07:52:54.662Z,101087.04
2019-05-07T07:55:25.791Z,101084.58
2019-05-07T07:58:11.941Z,101082.33
2019-05-07T08:00:43.095Z,101083.47
2019-05-07T08:03:14.317Z,101084.45
2019-05-07T08:05:43.869Z,101084.17
2019-05-07T08:08:13.683Z,101089.57
2019-05-07T08:10:43.503Z,101090.12
2019-05-07T08:13:12.951Z,101085.72
2019-05-07T08:15:43.039Z,101082.03
2019-05-07T08:18:12.867Z,101084.92
2019-05-07T08:20:43.097Z,101083.31
2019-05-07T08:23:12.718Z,101079.50
2019-05-07T08:25:48.408Z,101079.81
2019-05-07T08:28:23.132Z,101080.14
2019-05-07T08:31:02.981Z,101074.94
2019-05-07T08:33:34.128Z,101074.78
2019-05-07T08:36:05.669Z,101077.13
2019-05-07T08:38:36.865Z,101073.45
2019-05-07T08:41:06.427Z,101068.29
2019-05-07T08:43:35.933Z,101069.87
2019-05-07T08:46:23.562Z,101068.08
2019-05-07T08:48:54.419Z,101069.19
2019-05-07T08:51:23.982Z,101077.91
2019-05-07T08:54:05.691Z,101072.48
2019-05-07T08:56:36.293Z,101069.59
2019-05-07T08:59:08.331Z,101070.65
2019-05-07T09:01:39.947Z,101058.86
2019-05-07T09:04:10.000Z,101058.23
2019-05-07T09:06:39.557Z,101061.41
2019-05-07T09:09:13.492Z,101064.59
2019-05-07T09:11:43.306Z,101064.23
2019-05-07T09:14:14.151Z,101059.94
2019-05-07T09:16:43.675Z,101053.20
2019-05-07T09:19:14.180Z,101056.39
2019-05-07T09:21:43.701Z,101059.94
2019-05-07T09:24:14.669Z,101060.18
2019-05-07T09:26:45.835Z,101063.86
2019-05-07T09:29:17.526Z,101051.21
2019-05-07T09:31:48.686Z,101048.78
2019-05-07T09:34:26.022Z,101052.79
2019-05-07T09:37:02.250Z,101052.50
2019-05-07T09:39:32.418Z,101059.36
2019-05-07T09:42:02.473Z,101057.80
2019-05-07T09:44:32.512Z,101054.97
2019-05-07T09:47:02.670Z,101053.83
2019-05-07T09:49:32.668Z,101052.63
2019-05-07T09:52:04.323Z,101048.45
2019-05-07T09:54:33.472Z,101045.24
2019-05-07T09:57:03.188Z,101052.63
2019-05-07T09:59:33.016Z,101044.19
2019-05-07T10:02:02.672Z,101049.59
2019-05-07T10:04:32.758Z,101038.50
2019-05-07T10:07:02.734Z,101041.19
2019-05-07T10:09:32.943Z,101025.17
2019-05-07T10:12:16.478Z,101020.41
2019-05-07T10:14:46.143Z,101034.12
2019-05-07T10:17:26.162Z,101025.79
2019-05-07T10:19:55.716Z,101024.69
2019-05-07T10:22:25.303Z,101035.95
2019-05-07T10:24:54.888Z,101035.14
2019-05-07T10:27:24.454Z,101020.52
2019-05-07T10:29:54.325Z,101018.72
2019-05-07T10:32:24.133Z,101012.63
2019-05-07T10:34:55.170Z,101018.94
2019-05-07T10:37:27.387Z,101021.91
2019-05-07T10:39:56.029Z,101021.84
2019-05-07T10:42:25.535Z,101016.67
2019-05-07T10:45:03.336Z,101018.38
2019-05-07T10:47:52.024Z,101015.91
2019-05-07T10:50:35.476Z,101021.53
2019-05-07T10:52:54.309Z,101011.95
2019-05-07T10:55:23.845Z,101010.11
2019-05-07T10:57:53.416Z,101012.48
2019-05-07T11:00:25.473Z,101012.47
2019-05-07T11:02:55.002Z,101012.17
2019-05-07T11:05:24.516Z,101006.87
2019-05-07T11:07:54.142Z,101008.62
2019-05-07T11:10:23.797Z,101009.55
2019-05-07T11:12:53.351Z,100998.53
2019-05-07T11:15:22.977Z,100995.56
2019-05-07T11:17:56.520Z,100993.95
2019-05-07T11:20:26.098Z,100993.69
2019-05-07T11:22:55.692Z,100980.00
2019-05-07T11:25:25.571Z,100976.98
2019-05-07T11:27:55.066Z,100982.80
2019-05-07T11:30:24.552Z,100973.14
2019-05-07T11:32:53.992Z,100966.94
2019-05-07T11:35:23.541Z,100970.05
2019-05-07T11:37:52.979Z,100966.48
2019-05-07T11:40:23.087Z,100965.11
2019-05-07T11:43:12.897Z,100959.71
2019-05-07T11:45:46.201Z,100966.34
2019-05-07T11:48:18.084Z,100958.31
2019-05-07T11:51:03.815Z,100959.11
2019-05-07T11:53:29.948Z,100963.05
2019-05-07T11:55:59.401Z,100960.30
2019-05-07T11:58:29.303Z,100951.03
2019-05-07T12:01:09.466Z,100951.83
2019-05-07T12:03:38.925Z,100948.89
2019-05-07T12:06:09.449Z,100947.67
2019-05-07T12:08:48.132Z,100945.44
2019-05-07T12:11:11.923Z,100931.33
2019-05-07T12:13:42.767Z,100930.44
2019-05-07T12:16:14.222Z,100940.62
2019-05-07T12:18:43.802Z,100945.02
2019-05-07T12:21:20.254Z,100947.99
2019-05-07T12:23:44.590Z,100943.02
2019-05-07T12:26:14.436Z,100940.25
2019-05-07T12:28:43.992Z,100947.31
2019-05-07T12:31:15.073Z,100939.06
2019-05-07T12:33:46.272Z,100931.20
2019-05-07T12:36:16.095Z,100921.57
2019-05-07T12:38:45.607Z,100918.49
2019-05-07T12:41:34.153Z,100921.59
2019-05-07T12:44:06.675Z,100920.71
2019-05-07T12:46:37.284Z,100918.08
2019-05-07T12:49:08.066Z,100911.84
2019-05-07T12:51:48.205Z,100911.83
2019-05-07T12:54:19.507Z,100908.66
2019-05-07T12:56:49.177Z,100907.69
2019-05-07T12:59:18.742Z,100898.44
2019-05-07T13:02:16.688Z,100891.39
2019-05-07T13:04:37.803Z,100881.20
2019-05-07T13:07:24.129Z,100888.70
2019-05-07T13:09:54.232Z,100882.09
2019-05-07T13:12:24.103Z,100882.56
2019-05-07T13:14:54.967Z,100878.59
2019-05-07T13:17:24.433Z,100876.79
2019-05-07T13:19:54.250Z,100874.14
2019-05-07T13:22:23.707Z,100872.77
2019-05-07T13:24:53.232Z,100874.06
2019-05-07T13:27:23.238Z,100875.45
2019-05-07T13:29:53.400Z,100868.32
2019-05-07T13:32:24.234Z,100868.74
2019-05-07T13:34:54.266Z,100862.52
2019-05-07T13:37:28.556Z,100859.92
2019-05-07T13:40:02.558Z,100863.91
2019-05-07T13:42:41.911Z,100863.45
2019-05-07T13:45:15.975Z,100858.55
2019-05-07T13:47:46.069Z,100854.91
2019-05-07T13:50:15.980Z,100849.51
2019-05-07T13:52:45.496Z,100839.30
2019-05-07T13:55:15.121Z,100841.63
2019-05-07T13:57:44.713Z,100835.40
2019-05-07T14:00:16.868Z,100839.00
2019-05-07T14:02:46.469Z,100832.77
2019-05-07T14:05:16.107Z,100826.14
2019-05-07T14:07:45.948Z,100826.63
2019-05-07T14:10:15.685Z,100826.15
2019-05-07T14:12:45.272Z,100815.94
2019-05-07T14:15:14.995Z,100816.37
2019-05-07T14:17:44.815Z,100811.08
2019-05-07T14:20:14.852Z,100811.06
2019-05-07T14:22:44.677Z,100818.21
2019-05-07T14:25:14.606Z,100815.09
2019-05-07T14:27:44.226Z,100811.98
2019-05-07T14:30:14.538Z,100814.64
2019-05-07T14:32:48.926Z,100813.24
2019-05-07T14:35:32.367Z,100811.87
2019-05-07T14:38:03.708Z,100806.92
2019-05-07T14:40:33.272Z,100808.77
2019-05-07T14:43:07.423Z,100799.55
2019-05-07T14:45:37.406Z,100799.57
2019-05-07T14:48:06.902Z,100796.90
2019-05-07T14:50:36.743Z,100796.47
2019-05-07T14:53:06.306Z,100799.55
2019-05-07T14:55:36.278Z,100792.42
2019-05-07T14:58:06.146Z,100793.75
2019-05-07T15:00:35.946Z,100793.36
2019-05-07T15:03:05.536Z,100788.92
2019-05-07T15:05:35.128Z,100792.02
2019-05-07T15:08:10.461Z,100790.68
2019-05-07T15:10:36.097Z,100786.24
2019-05-07T15:13:05.577Z,100781.39
2019-05-07T15:15:36.231Z,100782.71
2019-05-07T15:18:23.921Z,100778.28
2019-05-07T15:20:53.943Z,100780.92
2019-05-07T15:23:25.727Z,100777.84
2019-05-07T15:25:56.147Z,100769.39
2019-05-07T15:28:26.249Z,100765.39
2019-05-07T15:31:09.736Z,100775.61
2019-05-07T15:33:39.326Z,100772.95
2019-05-07T15:36:08.830Z,100772.07
2019-05-07T15:38:38.313Z,100766.72
2019-05-07T15:41:07.875Z,100762.76
2019-05-07T15:43:37.707Z,100759.20
2019-05-07T15:46:07.373Z,100765.39
2019-05-07T15:48:36.914Z,100764.50
2019-05-07T15:51:06.481Z,100757.44
2019-05-07T15:53:42.608Z,100757.86
2019-05-07T15:56:12.444Z,100757.39
2019-05-07T15:58:42.677Z,100752.09
2019-05-07T16:01:13.426Z,100750.77
2019-05-07T16:03:44.635Z,100753.42
2019-05-07T16:06:14.187Z,100748.53
2019-05-07T16:08:45.354Z,100745.44
2019-05-07T16:11:15.200Z,100742.78
2019-05-07T16:13:47.518Z,100746.33
2019-05-07T16:16:17.062Z,100741.47
2019-05-07T16:19:07.054Z,100742.33
2019-05-07T16:21:36.531Z,100736.55
2019-05-07T16:24:06.090Z,100737.41
2019-05-07T16:26:35.729Z,100736.92
2019-05-07T16:29:05.178Z,100736.05
2019-05-07T16:31:34.738Z,100734.21
2019-05-07T16:34:04.260Z,100729.78
2019-05-07T16:36:33.763Z,100722.66
2019-05-07T16:39:04.112Z,100731.55
2019-05-07T16:41:34.779Z,100738.23
2019-05-07T16:44:06.479Z,100731.17
2019-05-07T16:46:35.941Z,100728.92
2019-05-07T16:49:05.391Z,100720.00
2019-05-07T16:51:34.892Z,100721.70
2019-05-07T16:54:04.695Z,100716.22
2019-05-07T16:56:34.213Z,100708.16
2019-05-07T16:59:07.546Z,100716.94
2019-05-07T17:01:37.358Z,100714.20
2019-05-07T17:04:07.181Z,100709.61
2019-05-07T17:06:36.720Z,100711.90
2019-05-07T17:09:14.471Z,100712.84
2019-05-07T17:11:44.007Z,100718.64
2019-05-07T17:14:13.529Z,100714.70
2019-05-07T17:16:42.975Z,100715.16
2019-05-07T17:19:14.052Z,100716.55
2019-05-07T17:21:44.599Z,100721.48
2019-05-07T17:24:14.202Z,100714.38
2019-05-07T17:26:44.138Z,100711.73
2019-05-07T17:29:13.615Z,100716.12
2019-05-07T17:31:43.154Z,100716.57
2019-05-07T17:34:12.659Z,100720.09
2019-05-07T17:36:42.419Z,100718.28
2019-05-07T17:39:12.310Z,100710.76
2019-05-07T17:41:42.908Z,100720.03
2019-05-07T17:44:12.692Z,100719.57
2019-05-07T17:46:43.187Z,100720.00
2019-05-07T17:49:13.701Z,100720.88
2019-05-07T17:51:43.824Z,100719.08
2019-05-07T17:54:14.629Z,100722.16
2019-05-07T17:56:44.276Z,100717.72
2019-05-07T17:59:13.908Z,100723.89
2019-05-07T18:01:50.111Z,100717.68
2019-05-07T18:04:19.362Z,100719.00
2019-05-07T18:06:48.873Z,100719.44
2019-05-07T18:09:18.490Z,100715.84
2019-05-07T18:11:47.970Z,100724.58
2019-05-07T18:14:17.502Z,100724.09
2019-05-07T18:16:57.998Z,100716.48
2019-05-07T18:19:29.096Z,100712.88
2019-05-07T18:21:58.593Z,100710.17
2019-05-07T18:24:28.191Z,100717.20
2019-05-07T18:26:58.744Z,100713.59
2019-05-07T18:29:28.227Z,100711.78
2019-05-07T18:32:00.523Z,100711.33
2019-05-07T18:34:32.085Z,100718.38
2019-05-07T18:37:02.146Z,100713.93
2019-05-07T18:39:32.414Z,100715.66
2019-05-07T18:42:02.820Z,100707.63
2019-05-07T18:44:32.460Z,100711.95
2019-05-07T18:47:02.474Z,100704.77
2019-05-07T18:49:32.268Z,100707.78
2019-05-07T18:52:02.912Z,100713.91
2019-05-07T18:54:34.349Z,100711.61
2019-05-07T18:57:03.863Z,100711.16
2019-05-07T18:59:35.095Z,100715.44
2019-05-07T19:02:05.214Z,100714.03
2019-05-07T19:04:35.326Z,100723.75
2019-05-07T19:07:04.838Z,100725.91
2019-05-07T19:09:34.506Z,100711.34
2019-05-07T19:12:05.061Z,100723.67
2019-05-07T19:14:34.614Z,100719.22
2019-05-07T19:17:04.504Z,100721.84
2019-05-07T19:19:34.074Z,100726.72
2019-05-07T19:22:03.576Z,100722.75
2019-05-07T19:24:44.326Z,100727.56
2019-05-07T19:27:04.761Z,100719.16
2019-05-07T19:29:34.547Z,100719.11
2019-05-07T19:32:06.026Z,100720.41
2019-05-07T19:34:35.563Z,100725.67
2019-05-07T19:37:06.097Z,100724.70
2019-05-07T19:39:35.599Z,100725.54
2019-05-07T19:42:05.315Z,100728.09
2019-05-07T19:44:35.204Z,100724.51
2019-05-07T19:47:05.739Z,100723.52
2019-05-07T19:49:35.201Z,100716.86
2019-05-07T19:52:05.381Z,100719.88
2019-05-07T19:54:35.184Z,100712.76
2019-05-07T19:57:04.912Z,100705.64
2019-05-07T19:59:34.707Z,100706.02
2019-05-07T20:02:07.580Z,100713.02
2019-05-07T20:04:37.041Z,100704.16
2019-05-07T20:07:07.009Z,100702.33
2019-05-07T20:09:38.104Z,100701.37
2019-05-07T20:12:08.107Z,100701.30
2019-05-07T20:14:37.848Z,100707.89
2019-05-07T20:17:07.462Z,100705.65
2019-05-07T20:19:36.957Z,100708.27
2019-05-07T20:22:06.939Z,100702.97
2019-05-07T20:24:36.366Z,100702.55
2019-05-07T20:27:06.022Z,100699.91
2019-05-07T20:29:35.571Z,100694.61
2019-05-07T20:32:05.116Z,100698.09
2019-05-07T20:34:34.700Z,100694.52
2019-05-07T20:37:04.664Z,100692.70
2019-05-07T20:39:34.176Z,100695.34
2019-05-07T20:42:04.091Z,100696.20
2019-05-07T20:44:33.891Z,100695.28
2019-05-07T20:47:03.480Z,100690.82
2019-05-07T20:49:33.028Z,100689.46
2019-05-07T20:52:03.042Z,100692.52
2019-05-07T20:54:43.228Z,100689.35
2019-05-07T20:57:22.304Z,100691.05
2019-05-07T20:59:51.712Z,100678.63
2019-05-07T21:02:22.742Z,100677.68
2019-05-07T21:04:52.923Z,100677.13
2019-05-07T21:07:22.549Z,100677.89
2019-05-07T21:09:53.003Z,100672.57
2019-05-07T21:12:22.799Z,100667.67
2019-05-07T21:14:52.671Z,100666.73
2019-05-07T21:17:22.762Z,100669.75
2019-05-07T21:19:52.318Z,100670.14
2019-05-07T21:22:22.799Z,100669.14
2019-05-07T21:24:53.211Z,100663.79
2019-05-07T21:27:23.264Z,100662.83
2019-05-07T21:29:54.103Z,100657.00
2019-05-07T21:32:23.668Z,100654.27
2019-05-07T21:34:53.115Z,100651.53
2019-05-07T21:37:23.336Z,100653.66
2019-05-07T21:39:53.250Z,100653.11
2019-05-07T21:42:23.099Z,100652.14
2019-05-07T21:44:52.894Z,100648.95
2019-05-07T21:47:22.396Z,100646.61
2019-05-07T21:49:54.898Z,100647.86
2019-05-07T21:52:24.967Z,100642.47
2019-05-07T21:54:56.356Z,100641.10
2019-05-07T21:57:45.629Z,100638.84
2019-05-07T22:00:21.965Z,100633.42
2019-05-07T22:02:52.811Z,100632.48
2019-05-07T22:05:22.730Z,100627.99
2019-05-07T22:07:54.435Z,100625.28
2019-05-07T22:10:24.044Z,100619.89
2019-05-07T22:12:54.639Z,100622.48
2019-05-07T22:15:24.233Z,100623.75
2019-05-07T22:17:54.052Z,100615.28
2019-05-07T22:20:23.877Z,100616.55
2019-05-07T22:22:53.366Z,100610.28
2019-05-07T22:25:22.921Z,100615.06
2019-05-07T22:27:54.391Z,100611.89
2019-05-07T22:30:34.734Z,100612.70
2019-05-07T22:33:05.936Z,100609.11
2019-05-07T22:35:37.104Z,100610.82
2019-05-07T22:38:25.122Z,100601.54
2019-05-07T22:40:55.955Z,100598.39
2019-05-07T22:43:26.521Z,100596.13
2019-05-07T22:45:56.112Z,100589.48
2019-05-07T22:48:25.960Z,100583.23
2019-05-07T22:50:55.398Z,100581.38
2019-05-07T22:53:24.871Z,100573.39
2019-05-07T22:55:57.229Z,100568.92
2019-05-07T22:58:28.365Z,100565.75
2019-05-07T23:01:02.571Z,100560.00
2019-05-07T23:03:32.344Z,100563.03
2019-05-07T23:06:08.003Z,100562.97
2019-05-07T23:08:38.766Z,100557.64
2019-05-07T23:11:08.371Z,100553.60
2019-05-07T23:13:38.056Z,100561.89
2019-05-07T23:16:07.623Z,100555.70
2019-05-07T23:18:37.068Z,100553.48
2019-05-07T23:21:06.563Z,100556.09
2019-05-07T23:23:36.030Z,100547.26
2019-05-07T23:26:05.838Z,100547.65
2019-05-07T23:28:35.350Z,100538.41
2019-05-07T23:31:04.813Z,100542.33
2019-05-07T23:33:34.332Z,100539.63
2019-05-07T23:36:04.252Z,100531.64
2019-05-07T23:38:33.774Z,100524.58
2019-05-07T23:41:22.323Z,100528.86
2019-05-07T23:44:12.625Z,100524.37
2019-05-07T23:46:44.894Z,100522.54
2019-05-07T23:49:13.603Z,100515.95
2019-05-07T23:51:43.133Z,100512.40
2019-05-07T23:54:12.567Z,100518.05
2019-05-07T23:56:43.003Z,100510.12
2019-05-07T23:59:14.925Z,100502.61
